Auburn, New York
Current Conditions -  °F | °C
As of 12:54 PM on Thursday 23 Oct 2014 (Local Time) from KSYR Reporting Station
Overcast Overcast  
Wind Chill: 53°   Ceiling: 3400
Heat Index: 53°   Visibility: 10mi
Dew Point: 41°   Wind: 14mph
Humidity: 64%   Direction: 320°NW
Pressure: 29.95"   Gusts: NA
Location:  42.93°N, 76.56°W
Report Text: KSYR 231654Z 32012KT 10SM BKN034 OVC100 12/05 A2995 RMK AO2 SLP140 BKN V OVC T01170050
Loading
Personal Weather Stations






























Interactive Weather Map
Tropical Storm Tracking
New forecast layout! Learn more

10-Day Weather Forecast

Advertisements
Track Severe Weather on mobile